Time;durP1;ratioP1;P1;durP2;ratioP2;P2;SDS_P1;SDS_P2;PMS_P1;PMS_P2;Temp;Humidity;BMP_temperature;BMP_pressure;BME280_temperature;BME280_humidity;BME280_pressure;Samples;Min_cycle;Max_cycle;Signal;HPM_P1;HPM_P2
2023/11/10 01:41:46;;;;;;;3.85;1.02;;;9.00;99.90;;;;;;6164997;23;20009;-88
2023/11/10 01:44:12;;;;;;;6.10;1.33;;;10.00;99.90;;;;;;6203539;23;20024;-90
2023/11/10 01:46:48;;;;;;;4.63;1.40;;;8.70;99.90;;;;;;6203213;23;19989;-90
2023/11/10 01:49:18;;;;;;;4.80;1.08;;;9.50;99.90;;;;;;6178280;23;19997;-89
2023/11/10 01:51:45;;;;;;;3.07;0.90;;;8.90;99.90;;;;;;6203023;23;20066;-89
2023/11/10 01:54:18;;;;;;;2.60;1.08;;;8.90;99.90;;;;;;6177989;23;20322;-88
2023/11/10 01:56:46;;;;;;;6.03;1.30;;;9.00;99.90;;;;;;6202865;23;20279;-87
2023/11/10 01:59:13;;;;;;;4.80;1.33;;;9.90;99.90;;;;;;6202452;23;19993;-90
2023/11/10 02:01:40;;;;;;;9.98;1.77;;;8.20;99.90;;;;;;6203620;23;20048;-87
2023/11/10 02:04:13;;;;;;;2.20;0.82;;;9.00;99.90;;;;;;6206114;23;20000;-87
2023/11/10 02:06:43;;;;;;;2.72;0.88;;;9.00;99.90;;;;;;6203680;23;20096;-89
2023/11/10 02:09:10;;;;;;;6.28;1.15;;;10.00;99.90;;;;;;6200694;23;20017;-88
2023/11/10 02:11:38;;;;;;;2.17;0.90;;;9.20;99.90;;;;;;6203538;23;19993;-88
2023/11/10 02:14:08;;;;;;;5.45;0.98;;;9.00;99.90;;;;;;6203205;23;20012;-89
2023/11/10 02:16:35;;;;;;;2.53;0.90;;;9.00;99.90;;;;;;6202818;23;20032;-90
2023/11/10 02:19:02;;;;;;;4.13;1.13;;;8.90;99.90;;;;;;6205636;23;19989;-89
2023/11/10 02:21:28;;;;;;;4.72;1.20;;;8.90;99.90;;;;;;6205942;23;20019;-89
2023/11/10 02:24:02;;;;;;;6.28;1.30;;;10.30;99.90;;;;;;6207454;23;20021;-89
2023/11/10 02:26:28;;;;;;;3.03;1.13;;;9.00;99.90;;;;;;6184226;23;20005;-86
2023/11/10 02:28:54;;;;;;;3.55;1.00;;;8.90;99.90;;;;;;6229067;22;20009;-88
2023/11/10 02:31:19;;;;;;;4.55;1.20;;;8.90;99.90;;;;;;6229309;22;20005;-88
2023/11/10 02:33:48;;;;;;;3.38;0.90;;;8.90;99.90;;;;;;6228305;22;20005;-89
2023/11/10 02:36:14;;;;;;;3.35;1.17;;;9.80;99.90;;;;;;6202846;23;19989;-88
2023/11/10 02:38:42;;;;;;;4.80;1.45;;;9.60;99.90;;;;;;6204514;23;20029;-90
2023/11/10 02:41:07;;;;;;;3.00;1.10;;;8.90;99.90;;;;;;6206243;23;20001;-88
2023/11/10 02:43:34;;;;;;;6.32;1.25;;;9.60;99.90;;;;;;6232211;22;19993;-88
2023/11/10 02:46:01;;;;;;;5.95;1.25;;;9.10;99.90;;;;;;6206915;23;19994;-89
2023/11/10 02:48:26;;;;;;;6.45;1.10;;;9.00;99.90;;;;;;6206110;23;20005;-87
2023/11/10 02:50:52;;;;;;;3.75;1.05;;;9.70;99.90;;;;;;6206403;23;20044;-89
2023/11/10 02:53:19;;;;;;;6.13;1.38;;;9.60;99.90;;;;;;6204529;23;20001;-88
2023/11/10 02:55:47;;;;;;;5.22;1.10;;;9.00;99.90;;;;;;6202392;22;19994;-87
2023/11/10 02:58:13;;;;;;;5.65;1.27;;;9.80;99.90;;;;;;6207420;23;19997;-90
2023/11/10 03:00:39;;;;;;;3.83;1.20;;;9.10;99.90;;;;;;6206024;23;19997;-89
2023/11/10 03:03:05;;;;;;;8.38;1.20;;;10.00;99.90;;;;;;6232802;22;20008;-88
2023/11/10 03:05:31;;;;;;;7.05;1.10;;;10.50;99.90;;;;;;6206866;23;20009;-88
2023/11/10 03:07:56;;;;;;;6.30;1.25;;;10.20;99.90;;;;;;6179892;23;20052;-90
2023/11/10 03:10:23;;;;;;;2.75;1.00;;;10.20;99.90;;;;;;6206176;23;19997;-88
2023/11/10 03:12:49;;;;;;;4.93;1.10;;;9.30;99.90;;;;;;6204803;23;20001;-89
2023/11/10 03:15:15;;;;;;;3.13;0.80;;;9.00;99.90;;;;;;6207950;23;19989;-89
2023/11/10 03:17:40;;;;;;;4.50;0.98;;;10.20;99.90;;;;;;6206786;23;19994;-88
2023/11/10 03:20:09;;;;;;;3.75;1.00;;;9.50;99.90;;;;;;6207672;23;19989;-88
2023/11/10 03:22:34;;;;;;;4.72;1.48;;;9.10;99.90;;;;;;6207798;23;20064;-90
2023/11/10 03:25:00;;;;;;;3.97;0.88;;;9.10;99.90;;;;;;6207489;23;20001;-88
2023/11/10 03:27:26;;;;;;;7.57;0.98;;;9.00;99.90;;;;;;6232409;22;19997;-88
2023/11/10 03:29:52;;;;;;;4.45;0.90;;;9.10;99.90;;;;;;6232015;22;20015;-89
2023/11/10 03:32:20;;;;;;;4.50;1.10;;;9.80;99.90;;;;;;6232194;22;20024;-88
2023/11/10 03:34:46;;;;;;;2.92;0.80;;;9.10;99.90;;;;;;6208161;23;20012;-89
2023/11/10 03:37:17;;;;;;;6.63;1.00;;;9.20;99.90;;;;;;6207421;23;20033;-89
2023/11/10 03:39:43;;;;;;;4.90;1.02;;;10.20;99.90;;;;;;6209189;23;20394;-88
2023/11/10 03:42:11;;;;;;;5.00;1.17;;;10.10;99.90;;;;;;6207397;23;20005;-88
2023/11/10 03:44:37;;;;;;;5.22;1.52;;;9.20;99.90;;;;;;6232749;22;19997;-89
2023/11/10 03:47:03;;;;;;;4.05;0.95;;;9.10;99.90;;;;;;6207188;23;19989;-90
2023/11/10 03:49:29;;;;;;;6.95;1.10;;;9.00;99.90;;;;;;6207432;23;20036;-88
2023/11/10 03:51:55;;;;;;;1.73;0.70;;;9.20;99.90;;;;;;6207770;23;19997;-89
2023/11/10 03:54:22;;;;;;;5.00;1.20;;;8.20;99.90;;;;;;6232488;22;19989;-88
2023/11/10 03:56:48;;;;;;;6.18;0.90;;;10.00;99.90;;;;;;6206142;23;20161;-88
2023/11/10 03:59:14;;;;;;;3.45;0.98;;;9.40;99.90;;;;;;6204539;23;20001;-88
2023/11/10 04:01:40;;;;;;;5.07;0.90;;;9.60;99.90;;;;;;6207738;23;20033;-89
2023/11/10 04:04:08;;;;;;;3.75;0.73;;;10.10;99.90;;;;;;6207204;23;20049;-88
2023/11/10 04:06:34;;;;;;;1.88;0.60;;;10.10;99.90;;;;;;6207224;23;19993;-90
2023/11/10 04:09:03;;;;;;;2.72;0.70;;;9.00;99.90;;;;;;6210113;23;20032;-88
2023/11/10 04:11:29;;;;;;;2.45;0.60;;;9.00;99.90;;;;;;6207471;23;20005;-89
2023/11/10 04:13:56;;;;;;;2.33;0.57;;;9.40;99.90;;;;;;6206717;23;20017;-91
2023/11/10 04:16:23;;;;;;;1.33;0.52;;;8.80;99.90;;;;;;6207375;23;19989;-88
2023/11/10 04:18:50;;;;;;;1.88;0.70;;;8.70;99.90;;;;;;6205128;23;20028;-88
2023/11/10 04:21:21;;;;;;;1.73;0.47;;;9.90;99.90;;;;;;6206632;23;20005;-89
2023/11/10 04:23:48;;;;;;;1.80;0.50;;;9.30;99.90;;;;;;6206360;23;20005;-88
2023/11/10 04:26:14;;;;;;;3.88;1.23;;;9.40;99.90;;;;;;6207953;23;20013;-89
2023/11/10 04:28:41;;;;;;;1.08;0.50;;;8.50;99.90;;;;;;6208661;23;19997;-88
2023/11/10 04:31:11;;;;;;;3.78;0.77;;;9.80;99.90;;;;;;6207598;23;20013;-90
2023/11/10 04:33:37;;;;;;;1.20;0.60;;;9.60;99.90;;;;;;6206256;23;19993;-88
2023/11/10 04:36:08;;;;;;;0.63;0.38;;;8.30;99.90;;;;;;6182131;23;20009;-88
2023/11/10 04:38:34;;;;;;;1.52;0.40;;;8.40;99.90;;;;;;6204540;23;20004;-89
2023/11/10 04:41:02;;;;;;;1.27;0.43;;;9.50;99.90;;;;;;6224713;22;19997;-89
2023/11/10 04:43:28;;;;;;;1.10;0.50;;;8.50;99.90;;;;;;6232582;22;20000;-87
2023/11/10 04:45:54;;;;;;;1.13;0.52;;;8.30;99.90;;;;;;6207078;23;20068;-88
2023/11/10 04:48:21;;;;;;;1.77;0.57;;;8.20;99.90;;;;;;6206736;23;20245;-87
2023/11/10 04:50:47;;;;;;;1.83;0.85;;;8.20;99.90;;;;;;6206903;23;20000;-88
2023/11/10 04:53:13;;;;;;;2.25;0.50;;;9.20;99.90;;;;;;6232281;22;19997;-89
2023/11/10 04:55:42;;;;;;;4.82;0.77;;;7.30;99.90;;;;;;6233339;22;20053;-89
2023/11/10 04:58:11;;;;;;;2.70;0.75;;;8.10;99.90;;;;;;6206853;23;20057;-89
2023/11/10 05:00:39;;;;;;;1.38;0.80;;;8.10;99.90;;;;;;6208603;23;20005;-88
2023/11/10 05:03:07;;;;;;;2.67;0.70;;;8.10;99.90;;;;;;6203926;23;20083;-86
2023/11/10 05:05:34;;;;;;;2.85;1.02;;;8.10;99.90;;;;;;6194880;23;20028;-86
2023/11/10 05:08:02;;;;;;;3.55;1.20;;;8.10;99.90;;;;;;6195538;23;20008;-84
2023/11/10 05:10:28;;;;;;;2.88;0.88;;;8.00;99.90;;;;;;6191312;23;20012;-85
2023/11/10 05:12:54;;;;;;;3.60;0.90;;;8.00;99.90;;;;;;6190657;23;20021;-87
2023/11/10 05:15:21;;;;;;;3.42;0.88;;;8.00;99.90;;;;;;6214364;23;20025;-84
2023/11/10 05:17:46;;;;;;;2.33;1.02;;;9.40;99.90;;;;;;6186878;23;20095;-85
2023/11/10 05:20:13;;;;;;;3.28;0.90;;;9.20;99.90;;;;;;6185719;23;20017;-85
2023/11/10 05:22:40;;;;;;;5.15;1.20;;;8.10;99.90;;;;;;6188576;23;20078;-87
2023/11/10 05:25:07;;;;;;;4.18;1.42;;;8.50;99.90;;;;;;6190343;23;20001;-85
2023/11/10 05:27:32;;;;;;;2.83;1.05;;;8.00;99.90;;;;;;6192112;23;20032;-87
2023/11/10 05:29:58;;;;;;;4.93;1.08;;;8.00;99.90;;;;;;6214376;23;20009;-87
2023/11/10 05:32:24;;;;;;;4.25;1.20;;;8.40;99.90;;;;;;6191364;23;20004;-87
2023/11/10 05:34:50;;;;;;;5.07;0.90;;;8.70;99.90;;;;;;6215399;23;20323;-84
2023/11/10 05:37:29;;;;;;;4.53;1.05;;;8.10;99.90;;;;;;6192120;23;20017;-87
2023/11/10 05:39:54;;;;;;;5.63;1.10;;;8.30;99.90;;;;;;6190988;23;20048;-84
2023/11/10 05:42:21;;;;;;;3.13;1.20;;;8.30;99.90;;;;;;6191937;23;20009;-87
2023/11/10 05:44:50;;;;;;;1.88;1.00;;;8.10;99.90;;;;;;6191352;23;20011;-86
2023/11/10 05:47:16;;;;;;;4.85;1.38;;;8.10;99.90;;;;;;6165328;23;20009;-89
2023/11/10 05:49:42;;;;;;;5.30;1.10;;;8.20;99.90;;;;;;6194768;23;20001;-84
2023/11/10 05:52:12;;;;;;;7.00;1.15;;;8.20;99.90;;;;;;6192725;23;20036;-86
2023/11/10 05:54:38;;;;;;;3.03;1.10;;;8.40;99.90;;;;;;6190820;23;20059;-85
2023/11/10 05:57:04;;;;;;;4.00;0.98;;;8.20;99.90;;;;;;6191369;23;20008;-85
2023/11/10 05:59:30;;;;;;;2.75;0.88;;;8.30;99.90;;;;;;6190837;23;20005;-82
2023/11/10 06:01:56;;;;;;;3.50;0.90;;;9.70;99.90;;;;;;6193636;23;20131;-84
2023/11/10 06:04:23;;;;;;;5.15;1.10;;;8.30;99.90;;;;;;6193742;23;20391;-84
2023/11/10 06:06:49;;;;;;;2.97;1.05;;;8.20;99.90;;;;;;6193974;23;20454;-87
2023/11/10 06:09:19;;;;;;;4.78;1.00;;;8.20;99.90;;;;;;6191246;23;20012;-85
2023/11/10 06:11:45;;;;;;;3.78;1.05;;;8.50;99.90;;;;;;6192245;23;20032;-85
2023/11/10 06:14:11;;;;;;;2.67;1.05;;;8.30;99.90;;;;;;6190511;23;20384;-85
2023/11/10 06:16:40;;;;;;;4.60;1.55;;;8.60;99.90;;;;;;6189532;23;20013;-84
2023/11/10 06:19:09;;;;;;;3.35;0.90;;;8.90;99.90;;;;;;6218048;23;20016;-86
2023/11/10 06:21:35;;;;;;;4.05;1.10;;;8.20;99.90;;;;;;6196884;23;20020;-87
2023/11/10 06:24:01;;;;;;;7.45;1.27;;;8.30;99.90;;;;;;6197065;23;20063;-88
2023/11/10 06:26:28;;;;;;;4.43;0.80;;;8.50;99.90;;;;;;6196882;23;20009;-88
2023/11/10 06:28:53;;;;;;;5.30;1.23;;;8.30;99.90;;;;;;6215987;23;20016;-88
2023/11/10 06:31:20;;;;;;;3.45;1.00;;;8.30;99.90;;;;;;6198092;23;20017;-86
2023/11/10 06:33:48;;;;;;;5.70;1.17;;;8.50;99.90;;;;;;6224642;23;20000;-87
2023/11/10 06:36:17;;;;;;;7.10;1.15;;;8.30;99.90;;;;;;6197758;23;20245;-86
2023/11/10 06:38:44;;;;;;;6.82;1.00;;;8.40;99.90;;;;;;6198959;23;20013;-88
2023/11/10 06:41:14;;;;;;;6.13;1.50;;;9.30;99.90;;;;;;6199557;23;20017;-87
2023/11/10 06:43:44;;;;;;;5.50;1.00;;;8.40;99.90;;;;;;6218836;23;20109;-87
2023/11/10 06:46:11;;;;;;;;;;;8.60;99.90;;;;;;6176196;23;20014;-87
2023/11/10 06:48:37;;;;;;;5.35;1.15;;;8.60;99.90;;;;;;6200619;23;19908;-88
2023/11/10 06:51:03;;;;;;;4.50;1.48;;;8.30;99.90;;;;;;6217267;23;20008;-88
2023/11/10 06:53:29;;;;;;;6.00;1.40;;;8.30;99.90;;;;;;6194780;23;20036;-86
2023/11/10 06:56:07;;;;;;;3.92;1.35;;;8.30;99.90;;;;;;6216308;23;20419;-86
2023/11/10 06:58:37;;;;;;;5.95;1.30;;;8.20;99.90;;;;;;6191016;23;20013;-88
2023/11/10 07:01:04;;;;;;;5.05;1.40;;;8.30;99.90;;;;;;6189238;23;20013;-87
2023/11/10 07:03:30;;;;;;;5.57;1.48;;;8.30;99.90;;;;;;6189603;23;20065;-86
2023/11/10 07:05:56;;;;;;;4.40;1.15;;;8.20;99.90;;;;;;6190206;23;20005;-88
2023/11/10 07:08:22;;;;;;;4.63;1.25;;;8.70;99.90;;;;;;6191896;23;20005;-88
2023/11/10 07:10:51;;;;;;;7.18;1.83;;;9.20;99.90;;;;;;6191443;23;20021;-88
2023/11/10 07:13:19;;;;;;;5.07;0.80;;;8.30;99.90;;;;;;6213436;23;20005;-87
2023/11/10 07:15:51;;;;;;;6.15;1.77;;;8.20;99.90;;;;;;6191019;23;20032;-87
2023/11/10 07:18:17;;;;;;;7.22;1.30;;;9.10;99.90;;;;;;6215573;23;20005;-86
2023/11/10 07:20:44;;;;;;;3.92;1.30;;;8.20;99.90;;;;;;6166446;23;20009;-85
2023/11/10 07:23:11;;;;;;;6.85;1.30;;;9.00;99.90;;;;;;6190512;23;20009;-84
2023/11/10 07:25:37;;;;;;;6.68;1.50;;;8.20;99.90;;;;;;6188509;23;20052;-83
2023/11/10 07:28:03;;;;;;;6.32;1.65;;;8.20;99.90;;;;;;6189668;23;20009;-86
2023/11/10 07:30:29;;;;;;;7.55;1.40;;;8.20;99.90;;;;;;6191432;23;20002;-88
2023/11/10 07:32:57;;;;;;;6.60;1.33;;;7.80;99.90;;;;;;6215804;23;20066;-87
2023/11/10 07:35:26;;;;;;;5.18;1.50;;;8.30;99.90;;;;;;6189906;23;20432;-85
2023/11/10 07:37:52;;;;;;;7.32;1.38;;;8.90;99.90;;;;;;6211751;23;20317;-88
2023/11/10 07:40:18;;;;;;;6.25;1.73;;;9.30;99.90;;;;;;6190339;23;20020;-88
2023/11/10 07:42:45;;;;;;;4.93;0.95;;;8.30;99.90;;;;;;6190356;23;20442;-85
2023/11/10 07:45:14;;;;;;;3.97;0.95;;;8.50;99.90;;;;;;6189436;23;19997;-88
2023/11/10 07:47:44;;;;;;;3.75;1.30;;;7.60;99.90;;;;;;6191429;23;20622;-85
2023/11/10 07:50:10;;;;;;;5.53;1.20;;;8.70;99.90;;;;;;6189814;23;20327;-87
2023/11/10 07:52:39;;;;;;;4.20;1.10;;;8.30;99.90;;;;;;6187992;23;20005;-83
2023/11/10 07:55:06;;;;;;;6.53;1.25;;;9.50;99.90;;;;;;6190006;23;20013;-87
2023/11/10 07:57:32;;;;;;;3.47;1.38;;;8.30;99.90;;;;;;6188966;23;20077;-86
2023/11/10 07:59:59;;;;;;;5.25;1.30;;;10.00;99.90;;;;;;6184770;23;20020;-88
2023/11/10 08:02:25;;;;;;;6.22;1.13;;;9.30;99.90;;;;;;6191251;23;20048;-87
2023/11/10 08:04:51;;;;;;;4.63;1.10;;;8.70;99.90;;;;;;6192491;23;20555;-88
2023/11/10 08:07:17;;;;;;;5.35;1.33;;;9.60;99.90;;;;;;6190167;23;20005;-88
2023/11/10 08:09:42;;;;;;;3.45;1.05;;;9.90;99.90;;;;;;6221259;23;20067;-85
2023/11/10 08:12:08;;;;;;;3.08;1.30;;;8.50;99.90;;;;;;6198674;23;20016;-88
2023/11/10 08:14:35;;;;;;;3.65;1.17;;;8.50;99.90;;;;;;6201473;23;20008;-88
2023/11/10 08:17:01;;;;;;;6.85;1.10;;;8.60;99.90;;;;;;6199136;23;20005;-87
2023/11/10 08:19:27;;;;;;;5.57;1.30;;;8.60;99.90;;;;;;6223418;23;20012;-87
2023/11/10 08:21:53;;;;;;;5.43;1.10;;;8.80;99.90;;;;;;6220642;23;20009;-86
2023/11/10 08:24:19;;;;;;;4.82;1.80;;;8.60;99.90;;;;;;6198573;23;20005;-86
2023/11/10 08:26:44;;;;;;;4.00;1.30;;;9.30;99.90;;;;;;6196663;23;20005;-86
2023/11/10 08:29:10;;;;;;;4.03;1.50;;;8.30;99.90;;;;;;6195510;23;20012;-86
2023/11/10 08:31:36;;;;;;;5.43;1.10;;;9.70;99.90;;;;;;6196453;23;20024;-87
2023/11/10 08:34:02;;;;;;;3.55;1.30;;;8.70;99.90;;;;;;6196898;23;20305;-89
2023/11/10 08:36:28;;;;;;;4.88;1.20;;;8.70;99.90;;;;;;6218341;23;20008;-84
2023/11/10 08:38:55;;;;;;;5.80;1.20;;;8.60;99.90;;;;;;6191697;23;20317;-90
2023/11/10 08:41:21;;;;;;;5.38;1.30;;;9.90;99.90;;;;;;6193150;23;20009;-86
2023/11/10 08:43:46;;;;;;;8.13;1.52;;;9.70;99.90;;;;;;6218530;23;20012;-86
2023/11/10 08:46:12;;;;;;;4.75;1.20;;;8.90;99.90;;;;;;6194719;23;20005;-85
2023/11/10 08:48:38;;;;;;;4.63;1.23;;;9.30;99.90;;;;;;6216488;23;20005;-89
2023/11/10 08:51:04;;;;;;;6.18;1.45;;;8.90;99.90;;;;;;6192125;23;20001;-87
2023/11/10 08:53:30;;;;;;;4.63;1.25;;;8.90;99.90;;;;;;6191153;23;20012;-88
2023/11/10 08:55:57;;;;;;;7.35;1.70;;;8.90;99.90;;;;;;6214297;23;20073;-86
2023/11/10 08:58:23;;;;;;;5.30;1.10;;;9.20;99.90;;;;;;6215650;23;20009;-88
2023/11/10 09:00:49;;;;;;;5.35;1.40;;;8.90;99.90;;;;;;6214750;23;20009;-87
2023/11/10 09:03:14;;;;;;;5.25;1.60;;;9.00;99.90;;;;;;6214931;23;20005;-90
2023/11/10 09:05:40;;;;;;;4.22;1.20;;;9.20;99.90;;;;;;6214394;23;20655;-89
2023/11/10 09:08:05;;;;;;;4.95;1.30;;;9.00;99.90;;;;;;6192807;23;20436;-87
2023/11/10 09:10:31;;;;;;;4.93;1.10;;;8.80;99.90;;;;;;6191587;23;20005;-89
2023/11/10 09:12:57;;;;;;;6.75;1.95;;;8.90;99.90;;;;;;6192377;23;20009;-89
2023/11/10 09:15:24;;;;;;;3.78;1.00;;;8.90;99.90;;;;;;6217665;23;20009;-87
2023/11/10 09:17:49;;;;;;;4.75;1.33;;;9.90;99.90;;;;;;6216232;23;20068;-87
2023/11/10 09:20:15;;;;;;;3.58;1.20;;;9.30;99.90;;;;;;6191970;23;20518;-90
2023/11/10 09:22:44;;;;;;;6.97;1.30;;;8.90;99.90;;;;;;6219555;23;20009;-89
2023/11/10 09:25:15;;;;;;;4.07;1.17;;;9.80;99.90;;;;;;6194993;23;20009;-88
2023/11/10 09:27:42;;;;;;;3.92;1.33;;;8.90;99.90;;;;;;6195050;23;20056;-89
2023/11/10 09:30:08;;;;;;;5.20;1.35;;;9.20;99.90;;;;;;6192968;23;20055;-89
2023/11/10 09:32:33;;;;;;;6.43;1.55;;;9.00;99.90;;;;;;6191511;23;20058;-85
2023/11/10 09:34:59;;;;;;;4.68;1.10;;;9.00;99.90;;;;;;6191825;23;20012;-89
2023/11/10 09:37:25;;;;;;;4.75;1.00;;;8.90;99.90;;;;;;6218727;23;20015;-89
2023/11/10 09:39:50;;;;;;;6.65;1.23;;;9.00;99.90;;;;;;6218016;23;20008;-88
2023/11/10 09:42:17;;;;;;;5.38;0.90;;;8.90;99.90;;;;;;6218240;23;20013;-85
2023/11/10 09:44:52;;;;;;;8.65;1.38;;;9.20;99.90;;;;;;6192431;23;20008;-86
2023/11/10 09:47:22;;;;;;;3.95;0.80;;;9.00;99.90;;;;;;6190857;23;20470;-87
2023/11/10 09:49:49;;;;;;;5.43;1.03;;;9.30;99.90;;;;;;6169279;23;20021;-86
2023/11/10 09:52:16;;;;;;;4.28;0.95;;;9.70;99.90;;;;;;6195762;23;19997;-87
2023/11/10 09:54:45;;;;;;;5.95;0.90;;;9.20;99.90;;;;;;6192640;23;20048;-85
2023/11/10 09:57:12;;;;;;;6.97;1.45;;;10.10;99.90;;;;;;6189326;23;20028;-85
2023/11/10 09:59:41;;;;;;;3.90;1.08;;;9.60;99.90;;;;;;6188726;23;20015;-82
2023/11/10 10:02:11;;;;;;;6.05;1.33;;;9.40;99.90;;;;;;6189918;23;20089;-87
2023/11/10 10:04:46;;;;;;;6.43;1.27;;;9.40;99.90;;;;;;6190471;23;20013;-82
2023/11/10 10:07:13;;;;;;;6.72;1.65;;;10.70;99.90;;;;;;6192427;23;20016;-83
2023/11/10 10:09:41;;;;;;;2.72;1.00;;;9.50;99.90;;;;;;6192393;23;20055;-88
2023/11/10 10:12:16;;;;;;;5.18;1.00;;;9.70;99.90;;;;;;6191874;23;20009;-87
2023/11/10 10:14:53;;;;;;;8.98;2.03;;;9.40;99.90;;;;;;6190752;23;20011;-89
2023/11/10 10:17:18;;;;;;;7.57;1.00;;;9.40;99.90;;;;;;6193018;23;20087;-87
2023/11/10 10:19:47;;;;;;;5.45;0.82;;;9.40;99.90;;;;;;6190936;23;20013;-87
2023/11/10 10:22:24;;;;;;;4.00;0.90;;;9.30;99.90;;;;;;6214581;23;20009;-89
2023/11/10 10:28:50;;;;;;;;;;;;;;;;;;;;;
2023/11/10 10:31:19;;;;;;;4.28;0.77;;;9.00;99.90;;;;;;6096584;23;20027;-88
2023/11/10 10:41:14;;;;;;;;;;;10.30;99.90;;;;;;6025653;23;20016;-86
2023/11/10 10:44:25;;;;;;;6.00;2.00;;;10.20;99.90;;;;;;6018126;23;19913;-86
2023/11/10 10:47:14;;;;;;;4.65;1.20;;;10.20;99.90;;;;;;6007996;23;20007;-83
2023/11/10 10:49:45;;;;;;;3.97;1.10;;;10.20;99.90;;;;;;6165553;23;20005;-87
2023/11/10 10:52:12;;;;;;;5.07;1.50;;;10.20;99.90;;;;;;6193503;23;20460;-85
2023/11/10 10:54:38;;;;;;;3.38;1.17;;;10.20;99.90;;;;;;6194004;23;20443;-85
2023/11/10 10:57:05;;;;;;;5.57;1.27;;;10.20;99.90;;;;;;6194871;23;20004;-88
2023/11/10 10:59:35;;;;;;;5.18;1.05;;;10.30;99.90;;;;;;6197346;23;20073;-89
2023/11/10 11:02:04;;;;;;;8.55;1.70;;;10.20;99.90;;;;;;6197156;23;20091;-87
2023/11/10 11:04:43;;;;;;;6.00;1.40;;;11.10;99.90;;;;;;6195964;23;20454;-87
2023/11/10 11:07:21;;;;;;;6.80;1.48;;;10.30;99.90;;;;;;6194056;23;20073;-87
2023/11/10 11:10:23;;;;;;;3.85;1.20;;;10.30;99.90;;;;;;6196169;23;20005;-86
2023/11/10 11:13:14;;;;;;;4.78;1.15;;;10.30;99.90;;;;;;6198972;23;20011;-84
2023/11/10 11:16:05;;;;;;;6.15;1.35;;;10.30;99.90;;;;;;6198750;23;20001;-87
2023/11/10 11:18:40;;;;;;;6.57;1.52;;;10.40;99.90;;;;;;6227530;23;20005;-86
2023/11/10 11:21:06;;;;;;;5.22;1.27;;;10.40;99.90;;;;;;6202130;23;20032;-84
2023/11/10 11:23:33;;;;;;;4.45;1.08;;;10.40;99.90;;;;;;6199765;23;20009;-89
2023/11/10 11:26:00;;;;;;;5.07;1.25;;;10.50;99.90;;;;;;6198906;23;20025;-85
2023/11/10 11:28:38;;;;;;;6.90;1.30;;;10.40;99.90;;;;;;6221488;23;20110;-88
2023/11/10 11:31:11;;;;;;;5.88;1.30;;;10.60;99.90;;;;;;6198445;23;20005;-88
2023/11/10 11:33:52;;;;;;;4.40;1.10;;;10.60;99.90;;;;;;6196407;23;20436;-90
2023/11/10 11:36:19;;;;;;;8.90;1.65;;;10.70;99.90;;;;;;6220115;23;20005;-88
2023/11/10 11:39:32;;;;;;;7.68;1.70;;;10.90;99.90;;;;;;6195787;23;20005;-88
2023/11/10 11:42:05;;;;;;;5.72;1.30;;;10.90;99.90;;;;;;6218463;23;20016;-89
2023/11/10 11:44:36;;;;;;;7.25;1.00;;;10.70;99.90;;;;;;6221789;23;20088;-86
2023/11/10 11:47:09;;;;;;;7.55;1.30;;;10.60;99.90;;;;;;6198180;23;20025;-83
2023/11/10 11:49:40;;;;;;;4.50;1.40;;;10.70;99.90;;;;;;6194284;23;20009;-87
2023/11/10 11:52:11;;;;;;;11.63;1.85;;;10.60;99.90;;;;;;6197079;23;20074;-85
2023/11/10 11:54:48;;;;;;;6.82;1.30;;;10.40;99.90;;;;;;6197466;23;20061;-84
2023/11/10 11:57:34;;;;;;;8.55;1.58;;;10.40;99.90;;;;;;6195127;23;20027;-85
2023/11/10 12:00:02;;;;;;;7.10;1.35;;;10.30;99.90;;;;;;6218549;23;20001;-85
2023/11/10 12:02:28;;;;;;;8.52;1.75;;;10.30;99.90;;;;;;6192200;23;20391;-85
2023/11/10 12:04:53;;;;;;;5.68;1.92;;;11.50;99.90;;;;;;6194493;23;20013;-82
2023/11/10 12:07:19;;;;;;;4.00;1.20;;;10.30;99.90;;;;;;6195062;23;20024;-83
2023/11/10 12:09:46;;;;;;;7.03;1.40;;;10.20;99.90;;;;;;6193537;23;20001;-85
2023/11/10 12:12:13;;;;;;;10.55;1.83;;;10.10;99.90;;;;;;6218321;23;20001;-89
2023/11/10 12:14:39;;;;;;;6.75;1.58;;;9.90;99.90;;;;;;6195065;23;20001;-83
2023/11/10 12:17:06;;;;;;;7.43;1.60;;;10.00;99.90;;;;;;6216915;23;20340;-85
2023/11/10 12:19:32;;;;;;;10.18;1.70;;;9.90;99.90;;;;;;6218033;23;20369;-84
2023/11/10 12:21:59;;;;;;;8.30;1.52;;;10.20;99.90;;;;;;6219268;23;20067;-87
2023/11/10 12:24:25;;;;;;;6.70;1.33;;;9.90;99.90;;;;;;6192483;23;20005;-85
2023/11/10 12:26:52;;;;;;;10.10;1.80;;;10.80;99.90;;;;;;6216674;23;20497;-85
2023/11/10 12:29:26;;;;;;;7.63;1.27;;;9.80;99.90;;;;;;6190874;23;20060;-85
2023/11/10 12:31:52;;;;;;;8.60;1.70;;;10.10;99.90;;;;;;6191136;23;20164;-82
2023/11/10 12:34:18;;;;;;;7.35;1.50;;;9.90;99.90;;;;;;6193308;23;20005;-87
2023/11/10 12:36:46;;;;;;;9.95;1.17;;;9.80;99.90;;;;;;6190963;23;20047;-86
2023/11/10 12:39:19;;;;;;;6.35;1.33;;;9.90;99.90;;;;;;6192240;23;20015;-86
2023/11/10 12:41:51;;;;;;;9.55;1.85;;;9.80;99.90;;;;;;6194478;23;20005;-85
2023/11/10 12:44:19;;;;;;;7.28;1.30;;;9.80;99.90;;;;;;6193218;23;20032;-84
2023/11/10 12:47:00;;;;;;;9.95;1.60;;;9.90;99.90;;;;;;6192891;23;20005;-84
2023/11/10 12:49:27;;;;;;;7.43;1.10;;;9.90;99.90;;;;;;6194753;23;20009;-83
2023/11/10 12:51:53;;;;;;;6.78;1.60;;;9.90;99.90;;;;;;6191745;23;20009;-87
2023/11/10 12:54:24;;;;;;;7.30;1.60;;;10.00;99.90;;;;;;6191421;23;20428;-84
2023/11/10 12:56:50;;;;;;;;;;;10.20;99.90;;;;;;6191749;23;20060;-87
2023/11/10 12:59:27;;;;;;;11.40;1.42;;;10.10;99.90;;;;;;6191153;23;19900;-83
2023/11/10 13:01:53;;;;;;;5.43;1.30;;;10.20;99.90;;;;;;6194447;23;20009;-85
2023/11/10 13:04:19;;;;;;;10.85;4.93;;;10.40;99.90;;;;;;6190884;23;20096;-83
2023/11/10 13:06:45;;;;;;;7.25;1.50;;;10.20;99.90;;;;;;6217059;23;20012;-86
2023/11/10 13:09:12;;;;;;;4.47;1.30;;;10.20;99.90;;;;;;6192493;23;20009;-85
2023/11/10 13:11:41;;;;;;;8.85;2.20;;;10.20;99.90;;;;;;6195976;23;20060;-84
2023/11/10 13:14:07;;;;;;;7.15;1.60;;;10.10;99.90;;;;;;6194488;23;20005;-86
2023/11/10 13:16:32;;;;;;;5.50;1.38;;;10.50;99.90;;;;;;6217487;23;20067;-88
2023/11/10 13:18:58;;;;;;;10.45;1.48;;;10.40;99.90;;;;;;6217568;23;20332;-85
2023/11/10 13:21:24;;;;;;;11.07;2.05;;;10.60;99.90;;;;;;6215710;23;20005;-85
2023/11/10 13:23:50;;;;;;;8.65;2.33;;;10.30;99.90;;;;;;6170762;23;20029;-81
2023/11/10 13:26:19;;;;;;;8.38;1.70;;;10.40;99.90;;;;;;6192506;23;20008;-83
2023/11/10 13:28:44;;;;;;;8.35;1.73;;;10.40;99.90;;;;;;6190025;23;20005;-87
2023/11/10 13:31:11;;;;;;;6.95;1.67;;;10.40;99.90;;;;;;6214333;23;20506;-85
2023/11/10 13:33:40;;;;;;;6.43;1.50;;;10.30;99.90;;;;;;6191077;23;20024;-84
2023/11/10 13:36:10;;;;;;;7.93;2.25;;;10.30;99.90;;;;;;6190163;23;20001;-81
2023/11/10 13:38:36;;;;;;;8.88;1.60;;;10.20;99.90;;;;;;6213019;23;20068;-86
2023/11/10 13:41:03;;;;;;;7.85;1.95;;;10.00;99.90;;;;;;6187795;23;20005;-83
2023/11/10 13:43:28;;;;;;;7.00;1.83;;;10.00;99.90;;;;;;6192654;23;20023;-87
2023/11/10 13:45:54;;;;;;;5.85;1.25;;;10.10;99.90;;;;;;6189292;23;20033;-85
2023/11/10 13:48:20;;;;;;;6.13;1.80;;;10.40;99.90;;;;;;6188649;23;20005;-87
2023/11/10 13:50:46;;;;;;;5.88;1.42;;;10.60;99.90;;;;;;6214537;23;20005;-84
2023/11/10 13:53:12;;;;;;;7.72;1.80;;;9.90;99.90;;;;;;6189681;23;20238;-86
2023/11/10 13:55:39;;;;;;;5.85;1.48;;;9.90;99.90;;;;;;6189898;23;20005;-84
2023/11/10 13:58:05;;;;;;;6.75;1.55;;;10.50;99.90;;;;;;6191843;23;20008;-84
2023/11/10 14:00:31;;;;;;;5.13;1.60;;;9.90;99.90;;;;;;6215636;23;20336;-87
2023/11/10 14:02:57;;;;;;;8.27;1.80;;;9.70;99.90;;;;;;6216277;23;20001;-87
2023/11/10 14:05:22;;;;;;;7.28;1.60;;;9.60;99.90;;;;;;6192354;23;20043;-88
2023/11/10 14:07:48;;;;;;;5.78;1.85;;;9.60;99.90;;;;;;6214067;23;20032;-86
2023/11/10 14:10:14;;;;;;;7.50;1.67;;;9.50;99.90;;;;;;6190280;23;20005;-87
2023/11/10 14:12:41;;;;;;;8.30;2.05;;;9.70;99.90;;;;;;6190655;23;20001;-88
2023/11/10 14:15:08;;;;;;;4.03;1.55;;;9.60;99.90;;;;;;6213867;23;20001;-84
2023/11/10 14:17:34;;;;;;;7.00;1.40;;;9.60;99.90;;;;;;6188935;23;20005;-86
2023/11/10 14:20:00;;;;;;;8.93;2.10;;;9.70;99.90;;;;;;6189369;23;20001;-83
2023/11/10 14:22:28;;;;;;;12.27;1.77;;;9.60;99.90;;;;;;6191044;23;20053;-83
2023/11/10 14:24:56;;;;;;;10.90;1.98;;;9.70;99.90;;;;;;6191789;23;20462;-83
2023/11/10 14:27:22;;;;;;;4.78;1.77;;;9.80;99.90;;;;;;6190870;23;20020;-85
2023/11/10 14:29:49;;;;;;;6.90;1.48;;;9.50;99.90;;;;;;6187915;23;20047;-84
2023/11/10 14:32:15;;;;;;;8.32;1.58;;;9.60;99.90;;;;;;6190918;23;20474;-86
2023/11/10 14:34:42;;;;;;;4.25;1.40;;;9.80;99.90;;;;;;6190307;23;20001;-84
2023/11/10 14:37:10;;;;;;;5.40;1.20;;;10.20;99.90;;;;;;6213262;23;20013;-85
2023/11/10 14:39:36;;;;;;;6.15;1.40;;;9.70;99.90;;;;;;6190514;23;20352;-86
2023/11/10 14:42:05;;;;;;;7.72;1.60;;;9.50;99.90;;;;;;6189057;23;20011;-84
2023/11/10 14:44:35;;;;;;;5.28;1.55;;;9.40;99.90;;;;;;6138213;23;20009;-83
2023/11/10 14:47:11;;;;;;;9.32;1.70;;;9.40;99.90;;;;;;6211664;23;20015;-82
2023/11/10 14:49:44;;;;;;;4.88;1.10;;;9.30;99.90;;;;;;6211185;23;20031;-85
2023/11/10 14:52:14;;;;;;;9.02;2.17;;;9.20;99.90;;;;;;6186495;23;20344;-85